sensor_id;sensor_type;location;lat;lon;timestamp;P1;durP1;ratioP1;P2;durP2;ratioP2
48849;SDS011;63210;53.370;6.770;2022-12-22T00:01:24;41.58;;;21.67;;
48849;SDS011;63210;53.370;6.770;2022-12-22T00:04:13;46.70;;;21.92;;
48849;SDS011;63210;53.370;6.770;2022-12-22T00:07:06;43.42;;;22.08;;
48849;SDS011;63210;53.370;6.770;2022-12-22T00:10:05;47.58;;;22.88;;
48849;SDS011;63210;53.370;6.770;2022-12-22T00:12:52;46.47;;;22.73;;
48849;SDS011;63210;53.370;6.770;2022-12-22T00:15:54;51.95;;;24.38;;
48849;SDS011;63210;53.370;6.770;2022-12-22T00:18:38;45.30;;;21.33;;
48849;SDS011;63210;53.370;6.770;2022-12-22T00:21:40;65.95;;;24.90;;
48849;SDS011;63210;53.370;6.770;2022-12-22T00:24:24;49.95;;;22.42;;
48849;SDS011;63210;53.370;6.770;2022-12-22T00:27:15;75.18;;;24.95;;
48849;SDS011;63210;53.370;6.770;2022-12-22T00:29:59;67.70;;;23.23;;
48849;SDS011;63210;53.370;6.770;2022-12-22T00:32:53;56.53;;;21.98;;
48849;SDS011;63210;53.370;6.770;2022-12-22T00:35:43;65.88;;;23.70;;
48849;SDS011;63210;53.370;6.770;2022-12-22T00:38:27;72.70;;;24.00;;
48849;SDS011;63210;53.370;6.770;2022-12-22T00:41:14;50.95;;;22.05;;
48849;SDS011;63210;53.370;6.770;2022-12-22T00:43:58;52.92;;;22.08;;
48849;SDS011;63210;53.370;6.770;2022-12-22T00:46:42;69.07;;;25.13;;
48849;SDS011;63210;53.370;6.770;2022-12-22T00:49:26;53.05;;;21.83;;
48849;SDS011;63210;53.370;6.770;2022-12-22T00:52:15;74.47;;;25.02;;
48849;SDS011;63210;53.370;6.770;2022-12-22T00:54:59;46.28;;;21.35;;
48849;SDS011;63210;53.370;6.770;2022-12-22T00:57:48;70.10;;;24.52;;
48849;SDS011;63210;53.370;6.770;2022-12-22T01:03:22;52.22;;;21.70;;
48849;SDS011;63210;53.370;6.770;2022-12-22T01:06:12;45.53;;;21.27;;
48849;SDS011;63210;53.370;6.770;2022-12-22T01:08:55;63.22;;;23.05;;
48849;SDS011;63210;53.370;6.770;2022-12-22T01:11:54;75.20;;;23.25;;
48849;SDS011;63210;53.370;6.770;2022-12-22T01:14:38;68.85;;;22.45;;
48849;SDS011;63210;53.370;6.770;2022-12-22T01:17:23;44.95;;;20.85;;
48849;SDS011;63210;53.370;6.770;2022-12-22T01:20:16;58.72;;;21.40;;
48849;SDS011;63210;53.370;6.770;2022-12-22T01:23:06;76.82;;;21.85;;
48849;SDS011;63210;53.370;6.770;2022-12-22T01:26:08;66.53;;;21.25;;
48849;SDS011;63210;53.370;6.770;2022-12-22T01:29:01;116.00;;;23.67;;
48849;SDS011;63210;53.370;6.770;2022-12-22T01:31:48;114.15;;;24.88;;
48849;SDS011;63210;53.370;6.770;2022-12-22T01:34:35;97.18;;;23.13;;
48849;SDS011;63210;53.370;6.770;2022-12-22T01:37:19;109.40;;;24.65;;
48849;SDS011;63210;53.370;6.770;2022-12-22T01:40:03;115.07;;;25.05;;
48849;SDS011;63210;53.370;6.770;2022-12-22T01:42:53;138.65;;;24.88;;
48849;SDS011;63210;53.370;6.770;2022-12-22T01:45:43;161.82;;;25.40;;
48849;SDS011;63210;53.370;6.770;2022-12-22T01:48:33;153.13;;;27.17;;
48849;SDS011;63210;53.370;6.770;2022-12-22T01:51:32;160.00;;;27.52;;
48849;SDS011;63210;53.370;6.770;2022-12-22T01:54:21;200.13;;;31.38;;
48849;SDS011;63210;53.370;6.770;2022-12-22T01:57:08;174.75;;;29.33;;
48849;SDS011;63210;53.370;6.770;2022-12-22T01:59:55;201.60;;;31.15;;
48849;SDS011;63210;53.370;6.770;2022-12-22T02:02:42;140.90;;;29.00;;
48849;SDS011;63210;53.370;6.770;2022-12-22T02:05:30;127.50;;;27.85;;
48849;SDS011;63210;53.370;6.770;2022-12-22T02:08:31;187.52;;;32.13;;
48849;SDS011;63210;53.370;6.770;2022-12-22T02:14:47;88.72;;;26.77;;
48849;SDS011;63210;53.370;6.770;2022-12-22T02:18:33;99.65;;;27.20;;
48849;SDS011;63210;53.370;6.770;2022-12-22T02:30:36;97.97;;;27.88;;
48849;SDS011;63210;53.370;6.770;2022-12-22T02:49:45;120.43;;;27.63;;
48849;SDS011;63210;53.370;6.770;2022-12-22T02:53:02;170.40;;;28.25;;
48849;SDS011;63210;53.370;6.770;2022-12-22T02:59:14;108.93;;;26.10;;
48849;SDS011;63210;53.370;6.770;2022-12-22T03:08:04;130.55;;;26.55;;
48849;SDS011;63210;53.370;6.770;2022-12-22T03:11:00;159.90;;;27.10;;
48849;SDS011;63210;53.370;6.770;2022-12-22T03:20:30;59.58;;;23.20;;
48849;SDS011;63210;53.370;6.770;2022-12-22T03:23:25;65.28;;;23.73;;
48849;SDS011;63210;53.370;6.770;2022-12-22T03:29:16;225.18;;;27.70;;
48849;SDS011;63210;53.370;6.770;2022-12-22T03:32:18;136.10;;;26.10;;
48849;SDS011;63210;53.370;6.770;2022-12-22T03:35:15;203.80;;;26.63;;
48849;SDS011;63210;53.370;6.770;2022-12-22T03:38:10;170.88;;;26.92;;
48849;SDS011;63210;53.370;6.770;2022-12-22T03:41:18;97.72;;;24.50;;
48849;SDS011;63210;53.370;6.770;2022-12-22T03:47:45;139.10;;;27.70;;
48849;SDS011;63210;53.370;6.770;2022-12-22T03:51:02;177.57;;;29.85;;
48849;SDS011;63210;53.370;6.770;2022-12-22T03:56:32;176.45;;;29.17;;
48849;SDS011;63210;53.370;6.770;2022-12-22T04:02:10;133.88;;;29.92;;
48849;SDS011;63210;53.370;6.770;2022-12-22T04:04:59;141.63;;;29.58;;
48849;SDS011;63210;53.370;6.770;2022-12-22T04:07:42;141.95;;;29.17;;
48849;SDS011;63210;53.370;6.770;2022-12-22T04:10:25;83.43;;;27.30;;
48849;SDS011;63210;53.370;6.770;2022-12-22T04:20:01;265.33;;;30.80;;
48849;SDS011;63210;53.370;6.770;2022-12-22T04:23:08;141.88;;;30.02;;
48849;SDS011;63210;53.370;6.770;2022-12-22T04:35:19;96.40;;;26.80;;
48849;SDS011;63210;53.370;6.770;2022-12-22T04:38:36;145.80;;;30.35;;
48849;SDS011;63210;53.370;6.770;2022-12-22T04:44:59;88.68;;;28.30;;
48849;SDS011;63210;53.370;6.770;2022-12-22T04:57:53;76.22;;;24.80;;
48849;SDS011;63210;53.370;6.770;2022-12-22T05:07:34;40.25;;;17.15;;
48849;SDS011;63210;53.370;6.770;2022-12-22T05:10:18;42.47;;;17.95;;
48849;SDS011;63210;53.370;6.770;2022-12-22T05:16:38;39.78;;;16.42;;
48849;SDS011;63210;53.370;6.770;2022-12-22T05:19:24;33.45;;;16.15;;
48849;SDS011;63210;53.370;6.770;2022-12-22T05:32:26;31.88;;;14.07;;
48849;SDS011;63210;53.370;6.770;2022-12-22T05:35:12;37.55;;;14.75;;
48849;SDS011;63210;53.370;6.770;2022-12-22T05:37:38;31.27;;;14.23;;
48849;SDS011;63210;53.370;6.770;2022-12-22T05:40:12;27.88;;;14.00;;
48849;SDS011;63210;53.370;6.770;2022-12-22T05:42:40;24.10;;;11.02;;
48849;SDS011;63210;53.370;6.770;2022-12-22T05:45:10;26.42;;;11.63;;
48849;SDS011;63210;53.370;6.770;2022-12-22T05:47:39;33.60;;;14.85;;
48849;SDS011;63210;53.370;6.770;2022-12-22T05:50:07;30.95;;;14.18;;
48849;SDS011;63210;53.370;6.770;2022-12-22T05:52:36;36.17;;;15.80;;
48849;SDS011;63210;53.370;6.770;2022-12-22T05:55:07;35.70;;;14.75;;
48849;SDS011;63210;53.370;6.770;2022-12-22T05:57:42;28.45;;;13.98;;
48849;SDS011;63210;53.370;6.770;2022-12-22T06:00:11;27.38;;;12.70;;
48849;SDS011;63210;53.370;6.770;2022-12-22T06:02:38;36.35;;;13.43;;
48849;SDS011;63210;53.370;6.770;2022-12-22T06:05:13;37.15;;;14.52;;
48849;SDS011;63210;53.370;6.770;2022-12-22T06:07:44;40.90;;;15.75;;
48849;SDS011;63210;53.370;6.770;2022-12-22T06:10:13;37.35;;;16.13;;
48849;SDS011;63210;53.370;6.770;2022-12-22T06:12:39;40.15;;;16.02;;
48849;SDS011;63210;53.370;6.770;2022-12-22T06:15:17;36.25;;;14.07;;
48849;SDS011;63210;53.370;6.770;2022-12-22T06:17:43;56.63;;;17.42;;
48849;SDS011;63210;53.370;6.770;2022-12-22T06:20:17;51.72;;;18.90;;
48849;SDS011;63210;53.370;6.770;2022-12-22T06:22:49;60.20;;;19.27;;
48849;SDS011;63210;53.370;6.770;2022-12-22T06:25:19;59.78;;;19.23;;
48849;SDS011;63210;53.370;6.770;2022-12-22T06:27:48;42.45;;;17.65;;
48849;SDS011;63210;53.370;6.770;2022-12-22T06:30:16;40.03;;;17.92;;
48849;SDS011;63210;53.370;6.770;2022-12-22T06:39:36;234.60;;;115.03;;
48849;SDS011;63210;53.370;6.770;2022-12-22T06:42:22;138.50;;;69.20;;
48849;SDS011;63210;53.370;6.770;2022-12-22T06:45:18;294.17;;;48.58;;
48849;SDS011;63210;53.370;6.770;2022-12-22T06:54:36;92.80;;;39.25;;
48849;SDS011;63210;53.370;6.770;2022-12-22T07:04:34;1212.50;;;232.57;;
48849;SDS011;63210;53.370;6.770;2022-12-22T07:07:21;852.78;;;101.35;;
48849;SDS011;63210;53.370;6.770;2022-12-22T07:09:59;726.33;;;70.65;;
48849;SDS011;63210;53.370;6.770;2022-12-22T07:12:37;456.42;;;60.67;;
48849;SDS011;63210;53.370;6.770;2022-12-22T07:15:23;616.80;;;105.78;;
48849;SDS011;63210;53.370;6.770;2022-12-22T07:17:51;152.40;;;27.90;;
48849;SDS011;63210;53.370;6.770;2022-12-22T07:26:56;225.25;;;83.90;;
48849;SDS011;63210;53.370;6.770;2022-12-22T07:29:23;326.58;;;68.97;;
48849;SDS011;63210;53.370;6.770;2022-12-22T07:32:03;337.67;;;81.57;;
48849;SDS011;63210;53.370;6.770;2022-12-22T07:34:34;377.17;;;43.38;;
48849;SDS011;63210;53.370;6.770;2022-12-22T07:39:55;176.38;;;54.00;;
48849;SDS011;63210;53.370;6.770;2022-12-22T07:45:23;315.30;;;81.80;;
48849;SDS011;63210;53.370;6.770;2022-12-22T07:48:03;252.38;;;43.17;;
48849;SDS011;63210;53.370;6.770;2022-12-22T07:50:49;293.50;;;45.25;;
48849;SDS011;63210;53.370;6.770;2022-12-22T07:53:17;116.95;;;30.70;;
48849;SDS011;63210;53.370;6.770;2022-12-22T07:56:04;265.33;;;53.22;;
48849;SDS011;63210;53.370;6.770;2022-12-22T07:58:29;407.45;;;29.02;;
48849;SDS011;63210;53.370;6.770;2022-12-22T08:00:58;205.73;;;80.15;;
48849;SDS011;63210;53.370;6.770;2022-12-22T08:07:02;110.15;;;19.73;;
48849;SDS011;63210;53.370;6.770;2022-12-22T08:09:37;312.50;;;24.50;;
48849;SDS011;63210;53.370;6.770;2022-12-22T08:12:05;154.45;;;21.10;;
48849;SDS011;63210;53.370;6.770;2022-12-22T08:14:32;131.52;;;18.38;;
48849;SDS011;63210;53.370;6.770;2022-12-22T08:17:00;152.05;;;20.70;;
48849;SDS011;63210;53.370;6.770;2022-12-22T08:19:25;199.48;;;18.63;;
48849;SDS011;63210;53.370;6.770;2022-12-22T08:21:51;153.77;;;20.67;;
48849;SDS011;63210;53.370;6.770;2022-12-22T08:25:03;100.80;;;21.95;;
48849;SDS011;63210;53.370;6.770;2022-12-22T08:27:32;106.30;;;16.88;;
48849;SDS011;63210;53.370;6.770;2022-12-22T08:30:11;129.55;;;17.23;;
48849;SDS011;63210;53.370;6.770;2022-12-22T08:32:42;133.73;;;19.65;;
48849;SDS011;63210;53.370;6.770;2022-12-22T08:35:17;99.90;;;19.00;;
48849;SDS011;63210;53.370;6.770;2022-12-22T08:37:43;238.57;;;22.63;;
48849;SDS011;63210;53.370;6.770;2022-12-22T08:40:12;100.45;;;22.02;;
48849;SDS011;63210;53.370;6.770;2022-12-22T08:42:43;121.88;;;21.98;;
48849;SDS011;63210;53.370;6.770;2022-12-22T08:47:41;86.13;;;27.98;;
48849;SDS011;63210;53.370;6.770;2022-12-22T08:50:07;122.70;;;20.77;;
48849;SDS011;63210;53.370;6.770;2022-12-22T08:52:41;92.22;;;13.18;;
48849;SDS011;63210;53.370;6.770;2022-12-22T08:55:06;127.13;;;14.60;;
48849;SDS011;63210;53.370;6.770;2022-12-22T08:57:35;164.43;;;17.92;;
48849;SDS011;63210;53.370;6.770;2022-12-22T09:00:06;154.07;;;15.90;;
48849;SDS011;63210;53.370;6.770;2022-12-22T09:02:33;183.10;;;19.92;;
48849;SDS011;63210;53.370;6.770;2022-12-22T09:04:58;185.10;;;18.17;;
48849;SDS011;63210;53.370;6.770;2022-12-22T09:07:24;97.95;;;16.45;;
48849;SDS011;63210;53.370;6.770;2022-12-22T09:09:50;74.55;;;17.13;;
48849;SDS011;63210;53.370;6.770;2022-12-22T09:12:15;78.07;;;16.25;;
48849;SDS011;63210;53.370;6.770;2022-12-22T09:14:41;72.03;;;18.00;;
48849;SDS011;63210;53.370;6.770;2022-12-22T09:20:41;66.75;;;14.85;;
48849;SDS011;63210;53.370;6.770;2022-12-22T09:23:07;71.82;;;19.17;;
48849;SDS011;63210;53.370;6.770;2022-12-22T09:25:50;94.60;;;22.83;;
48849;SDS011;63210;53.370;6.770;2022-12-22T09:30:50;48.17;;;18.88;;
48849;SDS011;63210;53.370;6.770;2022-12-22T09:33:34;63.63;;;20.23;;
48849;SDS011;63210;53.370;6.770;2022-12-22T09:36:06;52.97;;;18.35;;
48849;SDS011;63210;53.370;6.770;2022-12-22T09:38:34;54.88;;;14.68;;
48849;SDS011;63210;53.370;6.770;2022-12-22T09:46:23;43.67;;;16.50;;
48849;SDS011;63210;53.370;6.770;2022-12-22T09:49:05;43.10;;;13.32;;
48849;SDS011;63210;53.370;6.770;2022-12-22T09:51:33;46.40;;;22.83;;
48849;SDS011;63210;53.370;6.770;2022-12-22T09:54:14;46.22;;;18.77;;
48849;SDS011;63210;53.370;6.770;2022-12-22T09:56:40;46.70;;;17.15;;
48849;SDS011;63210;53.370;6.770;2022-12-22T09:59:13;55.88;;;24.13;;
48849;SDS011;63210;53.370;6.770;2022-12-22T10:04:49;32.47;;;12.18;;
48849;SDS011;63210;53.370;6.770;2022-12-22T10:07:33;34.38;;;13.00;;
48849;SDS011;63210;53.370;6.770;2022-12-22T10:10:06;40.03;;;15.75;;
48849;SDS011;63210;53.370;6.770;2022-12-22T10:12:34;49.97;;;28.45;;
48849;SDS011;63210;53.370;6.770;2022-12-22T10:15:00;27.77;;;13.27;;
48849;SDS011;63210;53.370;6.770;2022-12-22T10:17:30;22.77;;;12.73;;
48849;SDS011;63210;53.370;6.770;2022-12-22T10:20:18;24.30;;;11.15;;
48849;SDS011;63210;53.370;6.770;2022-12-22T10:22:58;21.40;;;10.27;;
48849;SDS011;63210;53.370;6.770;2022-12-22T10:25:37;18.85;;;8.38;;
48849;SDS011;63210;53.370;6.770;2022-12-22T10:28:10;34.03;;;16.70;;
48849;SDS011;63210;53.370;6.770;2022-12-22T10:30:45;26.88;;;16.08;;
48849;SDS011;63210;53.370;6.770;2022-12-22T10:33:20;28.15;;;12.35;;
48849;SDS011;63210;53.370;6.770;2022-12-22T10:35:50;26.52;;;17.13;;
48849;SDS011;63210;53.370;6.770;2022-12-22T10:41:15;23.58;;;13.93;;
48849;SDS011;63210;53.370;6.770;2022-12-22T10:44:01;27.95;;;16.88;;
48849;SDS011;63210;53.370;6.770;2022-12-22T10:49:44;23.27;;;10.23;;
48849;SDS011;63210;53.370;6.770;2022-12-22T10:52:19;20.45;;;11.20;;
48849;SDS011;63210;53.370;6.770;2022-12-22T10:54:52;18.83;;;10.30;;
48849;SDS011;63210;53.370;6.770;2022-12-22T10:57:30;24.52;;;13.70;;
48849;SDS011;63210;53.370;6.770;2022-12-22T11:03:01;33.58;;;17.77;;
48849;SDS011;63210;53.370;6.770;2022-12-22T11:11:00;48.05;;;22.80;;
48849;SDS011;63210;53.370;6.770;2022-12-22T11:19:02;16.67;;;8.85;;
48849;SDS011;63210;53.370;6.770;2022-12-22T11:21:46;25.15;;;15.48;;
48849;SDS011;63210;53.370;6.770;2022-12-22T11:24:24;18.80;;;11.00;;
48849;SDS011;63210;53.370;6.770;2022-12-22T11:27:13;15.77;;;7.45;;
48849;SDS011;63210;53.370;6.770;2022-12-22T11:35:19;19.48;;;6.03;;
48849;SDS011;63210;53.370;6.770;2022-12-22T11:40:57;12.55;;;4.80;;
48849;SDS011;63210;53.370;6.770;2022-12-22T11:43:41;16.13;;;4.38;;
48849;SDS011;63210;53.370;6.770;2022-12-22T11:54:31;11.73;;;3.58;;
48849;SDS011;63210;53.370;6.770;2022-12-22T11:57:12;12.27;;;4.35;;
48849;SDS011;63210;53.370;6.770;2022-12-22T12:00:20;10.15;;;5.07;;
48849;SDS011;63210;53.370;6.770;2022-12-22T12:03:10;25.10;;;11.38;;
48849;SDS011;63210;53.370;6.770;2022-12-22T12:14:33;29.50;;;10.38;;
48849;SDS011;63210;53.370;6.770;2022-12-22T12:25:31;22.13;;;7.53;;
48849;SDS011;63210;53.370;6.770;2022-12-22T12:30:44;21.92;;;8.07;;
48849;SDS011;63210;53.370;6.770;2022-12-22T12:36:35;37.85;;;14.82;;
48849;SDS011;63210;53.370;6.770;2022-12-22T12:42:20;16.13;;;5.97;;
48849;SDS011;63210;53.370;6.770;2022-12-22T12:50:47;18.10;;;6.93;;
48849;SDS011;63210;53.370;6.770;2022-12-22T12:53:20;17.35;;;7.93;;
48849;SDS011;63210;53.370;6.770;2022-12-22T13:01:08;21.60;;;11.68;;
48849;SDS011;63210;53.370;6.770;2022-12-22T13:03:35;24.02;;;13.45;;
48849;SDS011;63210;53.370;6.770;2022-12-22T13:06:02;26.45;;;11.32;;
48849;SDS011;63210;53.370;6.770;2022-12-22T13:11:46;49.03;;;21.98;;
48849;SDS011;63210;53.370;6.770;2022-12-22T13:20:28;35.72;;;12.20;;
48849;SDS011;63210;53.370;6.770;2022-12-22T13:22:58;24.42;;;9.43;;
48849;SDS011;63210;53.370;6.770;2022-12-22T13:41:18;11.13;;;3.17;;
48849;SDS011;63210;53.370;6.770;2022-12-22T13:43:56;13.05;;;4.40;;
48849;SDS011;63210;53.370;6.770;2022-12-22T13:46:37;16.13;;;4.70;;
48849;SDS011;63210;53.370;6.770;2022-12-22T13:49:35;16.48;;;4.38;;
48849;SDS011;63210;53.370;6.770;2022-12-22T13:54:52;17.90;;;3.63;;
48849;SDS011;63210;53.370;6.770;2022-12-22T13:57:32;20.45;;;3.70;;
48849;SDS011;63210;53.370;6.770;2022-12-22T14:00:15;19.08;;;3.80;;
48849;SDS011;63210;53.370;6.770;2022-12-22T14:02:44;12.90;;;3.70;;
48849;SDS011;63210;53.370;6.770;2022-12-22T14:21:20;17.08;;;4.13;;
48849;SDS011;63210;53.370;6.770;2022-12-22T14:24:54;16.35;;;4.22;;
48849;SDS011;63210;53.370;6.770;2022-12-22T14:49:46;14.25;;;3.88;;
48849;SDS011;63210;53.370;6.770;2022-12-22T14:53:05;13.93;;;4.18;;
48849;SDS011;63210;53.370;6.770;2022-12-22T14:59:38;13.02;;;4.30;;
48849;SDS011;63210;53.370;6.770;2022-12-22T15:14:36;11.75;;;4.18;;
48849;SDS011;63210;53.370;6.770;2022-12-22T15:24:13;11.40;;;3.95;;
48849;SDS011;63210;53.370;6.770;2022-12-22T15:33:59;18.58;;;5.03;;
48849;SDS011;63210;53.370;6.770;2022-12-22T15:37:05;15.10;;;3.78;;
48849;SDS011;63210;53.370;6.770;2022-12-22T15:43:08;12.65;;;3.90;;
48849;SDS011;63210;53.370;6.770;2022-12-22T15:45:48;15.90;;;3.67;;
48849;SDS011;63210;53.370;6.770;2022-12-22T15:48:30;10.77;;;5.38;;
